Terminal Aerodrome Forecast
Issued by NWS Wilmington, OH

Current Version | Previous Version | Graphics & Text | Print | Product List | Glossary On
Versions: 1 2 3 4 5 6 7 8 9 10 11 12 13 14 15 16 17 18 19 20 21 22 23 24 25 26 27 28
000
FTUS41 KILN 292300
TAFCVG
TAF
KCVG 292332Z 3000/3106 27005KT P6SM SCT050 BKN110
     FM300400 25003KT P6SM FEW040
     FM301500 27009KT P6SM BKN045
     FM302100 27008KT P6SM SCT050
     FM310000 VRB02KT P6SM FEW100=

USA.gov is the U.S. government's official web portal to all federal, state and local government web resources and services.